sensor_id;sensor_type;location;lat;lon;timestamp;P1;durP1;ratioP1;P2;durP2;ratioP2
64061;SDS011;50308;47.438;-1.528;2022-08-30T00:00:31;9.23;;;3.45;;
64061;SDS011;50308;47.438;-1.528;2022-08-30T00:03:15;7.53;;;4.00;;
64061;SDS011;50308;47.438;-1.528;2022-08-30T00:05:42;10.98;;;5.20;;
64061;SDS011;50308;47.438;-1.528;2022-08-30T00:08:08;7.43;;;3.67;;
64061;SDS011;50308;47.438;-1.528;2022-08-30T00:10:35;10.13;;;4.57;;
64061;SDS011;50308;47.438;-1.528;2022-08-30T00:13:02;10.90;;;4.35;;
64061;SDS011;50308;47.438;-1.528;2022-08-30T00:15:30;7.55;;;3.90;;
64061;SDS011;50308;47.438;-1.528;2022-08-30T00:18:01;11.60;;;3.92;;
64061;SDS011;50308;47.438;-1.528;2022-08-30T00:20:32;11.52;;;4.70;;
64061;SDS011;50308;47.438;-1.528;2022-08-30T00:23:03;10.38;;;4.13;;
64061;SDS011;50308;47.438;-1.528;2022-08-30T00:25:38;8.30;;;3.85;;
64061;SDS011;50308;47.438;-1.528;2022-08-30T00:28:10;7.03;;;4.13;;
64061;SDS011;50308;47.438;-1.528;2022-08-30T00:30:49;9.13;;;3.72;;
64061;SDS011;50308;47.438;-1.528;2022-08-30T00:33:20;9.02;;;4.20;;
64061;SDS011;50308;47.438;-1.528;2022-08-30T00:35:46;10.15;;;3.80;;
64061;SDS011;50308;47.438;-1.528;2022-08-30T00:38:12;11.65;;;4.75;;
64061;SDS011;50308;47.438;-1.528;2022-08-30T00:40:39;13.05;;;4.25;;
64061;SDS011;50308;47.438;-1.528;2022-08-30T00:43:09;12.50;;;4.03;;
64061;SDS011;50308;47.438;-1.528;2022-08-30T00:45:40;9.73;;;3.90;;
64061;SDS011;50308;47.438;-1.528;2022-08-30T00:48:06;7.78;;;3.90;;
64061;SDS011;50308;47.438;-1.528;2022-08-30T00:50:34;10.05;;;3.72;;
64061;SDS011;50308;47.438;-1.528;2022-08-30T00:53:10;8.45;;;3.60;;
64061;SDS011;50308;47.438;-1.528;2022-08-30T00:55:46;7.72;;;3.63;;
64061;SDS011;50308;47.438;-1.528;2022-08-30T00:58:16;6.45;;;3.88;;
64061;SDS011;50308;47.438;-1.528;2022-08-30T01:00:56;10.25;;;3.80;;
64061;SDS011;50308;47.438;-1.528;2022-08-30T01:03:26;7.57;;;4.30;;
64061;SDS011;50308;47.438;-1.528;2022-08-30T01:05:57;11.40;;;3.72;;
64061;SDS011;50308;47.438;-1.528;2022-08-30T01:08:46;10.02;;;3.67;;
64061;SDS011;50308;47.438;-1.528;2022-08-30T01:11:20;7.28;;;3.92;;
64061;SDS011;50308;47.438;-1.528;2022-08-30T01:13:49;7.05;;;4.38;;
64061;SDS011;50308;47.438;-1.528;2022-08-30T01:16:25;10.15;;;4.28;;
64061;SDS011;50308;47.438;-1.528;2022-08-30T01:18:59;6.97;;;3.50;;
64061;SDS011;50308;47.438;-1.528;2022-08-30T01:21:47;6.72;;;3.88;;
64061;SDS011;50308;47.438;-1.528;2022-08-30T01:24:35;9.20;;;4.50;;
64061;SDS011;50308;47.438;-1.528;2022-08-30T01:27:10;8.93;;;4.25;;
64061;SDS011;50308;47.438;-1.528;2022-08-30T01:29:41;9.27;;;4.57;;
64061;SDS011;50308;47.438;-1.528;2022-08-30T01:32:24;8.68;;;4.85;;
64061;SDS011;50308;47.438;-1.528;2022-08-30T01:34:58;9.75;;;4.55;;
64061;SDS011;50308;47.438;-1.528;2022-08-30T01:37:30;6.28;;;3.80;;
64061;SDS011;50308;47.438;-1.528;2022-08-30T01:40:14;5.57;;;3.50;;
64061;SDS011;50308;47.438;-1.528;2022-08-30T01:42:47;8.85;;;3.85;;
64061;SDS011;50308;47.438;-1.528;2022-08-30T01:45:21;9.63;;;4.03;;
64061;SDS011;50308;47.438;-1.528;2022-08-30T01:48:20;8.93;;;4.25;;
64061;SDS011;50308;47.438;-1.528;2022-08-30T01:50:47;9.30;;;3.95;;
64061;SDS011;50308;47.438;-1.528;2022-08-30T01:53:13;11.85;;;4.60;;
64061;SDS011;50308;47.438;-1.528;2022-08-30T01:55:46;7.90;;;4.22;;
64061;SDS011;50308;47.438;-1.528;2022-08-30T02:00:40;6.22;;;3.60;;
64061;SDS011;50308;47.438;-1.528;2022-08-30T02:03:09;8.88;;;3.92;;
64061;SDS011;50308;47.438;-1.528;2022-08-30T02:05:35;6.80;;;3.80;;
64061;SDS011;50308;47.438;-1.528;2022-08-30T02:10:34;7.07;;;4.15;;
64061;SDS011;50308;47.438;-1.528;2022-08-30T02:13:00;7.75;;;4.07;;
64061;SDS011;50308;47.438;-1.528;2022-08-30T02:15:26;5.65;;;3.53;;
64061;SDS011;50308;47.438;-1.528;2022-08-30T02:17:52;8.13;;;4.30;;
64061;SDS011;50308;47.438;-1.528;2022-08-30T02:20:18;9.10;;;4.22;;
64061;SDS011;50308;47.438;-1.528;2022-08-30T02:22:44;7.60;;;3.88;;
64061;SDS011;50308;47.438;-1.528;2022-08-30T02:25:11;7.47;;;3.22;;
64061;SDS011;50308;47.438;-1.528;2022-08-30T02:28:00;6.57;;;3.50;;
64061;SDS011;50308;47.438;-1.528;2022-08-30T02:30:32;10.48;;;3.97;;
64061;SDS011;50308;47.438;-1.528;2022-08-30T02:33:00;9.05;;;4.45;;
64061;SDS011;50308;47.438;-1.528;2022-08-30T02:35:25;13.50;;;4.20;;
64061;SDS011;50308;47.438;-1.528;2022-08-30T02:40:20;8.10;;;3.67;;
64061;SDS011;50308;47.438;-1.528;2022-08-30T02:42:47;6.45;;;3.70;;
64061;SDS011;50308;47.438;-1.528;2022-08-30T02:45:13;7.85;;;3.65;;
64061;SDS011;50308;47.438;-1.528;2022-08-30T02:47:41;5.38;;;3.42;;
64061;SDS011;50308;47.438;-1.528;2022-08-30T02:50:11;8.52;;;3.83;;
64061;SDS011;50308;47.438;-1.528;2022-08-30T02:52:37;6.93;;;4.25;;
64061;SDS011;50308;47.438;-1.528;2022-08-30T02:55:04;9.20;;;3.80;;
64061;SDS011;50308;47.438;-1.528;2022-08-30T02:57:31;6.70;;;3.55;;
64061;SDS011;50308;47.438;-1.528;2022-08-30T02:59:57;6.55;;;3.70;;
64061;SDS011;50308;47.438;-1.528;2022-08-30T03:02:24;7.22;;;3.67;;
64061;SDS011;50308;47.438;-1.528;2022-08-30T03:07:22;6.95;;;3.85;;
64061;SDS011;50308;47.438;-1.528;2022-08-30T03:09:53;6.15;;;3.80;;
64061;SDS011;50308;47.438;-1.528;2022-08-30T03:15:09;6.40;;;3.60;;
64061;SDS011;50308;47.438;-1.528;2022-08-30T03:17:39;7.63;;;4.03;;
64061;SDS011;50308;47.438;-1.528;2022-08-30T03:20:06;9.32;;;3.83;;
64061;SDS011;50308;47.438;-1.528;2022-08-30T03:22:33;6.25;;;3.50;;
64061;SDS011;50308;47.438;-1.528;2022-08-30T03:24:58;6.97;;;3.38;;
64061;SDS011;50308;47.438;-1.528;2022-08-30T03:27:26;5.82;;;3.35;;
64061;SDS011;50308;47.438;-1.528;2022-08-30T03:29:54;7.30;;;3.50;;
64061;SDS011;50308;47.438;-1.528;2022-08-30T03:32:24;7.32;;;3.63;;
64061;SDS011;50308;47.438;-1.528;2022-08-30T03:34:50;8.13;;;3.20;;
64061;SDS011;50308;47.438;-1.528;2022-08-30T03:37:16;7.60;;;3.13;;
64061;SDS011;50308;47.438;-1.528;2022-08-30T03:39:44;6.25;;;2.80;;
64061;SDS011;50308;47.438;-1.528;2022-08-30T03:42:11;5.70;;;3.40;;
64061;SDS011;50308;47.438;-1.528;2022-08-30T03:47:33;6.03;;;3.47;;
64061;SDS011;50308;47.438;-1.528;2022-08-30T03:50:13;5.70;;;3.50;;
64061;SDS011;50308;47.438;-1.528;2022-08-30T03:52:44;7.82;;;3.63;;
64061;SDS011;50308;47.438;-1.528;2022-08-30T03:55:15;10.57;;;3.55;;
64061;SDS011;50308;47.438;-1.528;2022-08-30T03:58:02;8.68;;;3.63;;
64061;SDS011;50308;47.438;-1.528;2022-08-30T04:00:46;8.20;;;3.60;;
64061;SDS011;50308;47.438;-1.528;2022-08-30T04:06:03;5.60;;;3.45;;
64061;SDS011;50308;47.438;-1.528;2022-08-30T04:08:31;7.50;;;3.63;;
64061;SDS011;50308;47.438;-1.528;2022-08-30T04:11:02;6.97;;;3.35;;
64061;SDS011;50308;47.438;-1.528;2022-08-30T04:13:39;8.02;;;3.30;;
64061;SDS011;50308;47.438;-1.528;2022-08-30T04:16:23;5.75;;;3.13;;
64061;SDS011;50308;47.438;-1.528;2022-08-30T04:18:51;7.43;;;3.50;;
64061;SDS011;50308;47.438;-1.528;2022-08-30T04:21:32;6.72;;;3.78;;
64061;SDS011;50308;47.438;-1.528;2022-08-30T04:24:06;9.13;;;3.22;;
64061;SDS011;50308;47.438;-1.528;2022-08-30T04:26:39;6.63;;;3.03;;
64061;SDS011;50308;47.438;-1.528;2022-08-30T04:29:37;5.90;;;3.10;;
64061;SDS011;50308;47.438;-1.528;2022-08-30T04:32:05;7.15;;;3.05;;
64061;SDS011;50308;47.438;-1.528;2022-08-30T04:34:36;4.63;;;2.92;;
64061;SDS011;50308;47.438;-1.528;2022-08-30T04:37:23;6.05;;;3.40;;
64061;SDS011;50308;47.438;-1.528;2022-08-30T04:40:00;7.32;;;3.03;;
64061;SDS011;50308;47.438;-1.528;2022-08-30T04:42:33;6.55;;;3.30;;
64061;SDS011;50308;47.438;-1.528;2022-08-30T04:45:13;6.32;;;2.85;;
64061;SDS011;50308;47.438;-1.528;2022-08-30T04:47:53;7.85;;;3.08;;
64061;SDS011;50308;47.438;-1.528;2022-08-30T04:50:34;5.88;;;2.85;;
64061;SDS011;50308;47.438;-1.528;2022-08-30T04:53:07;5.40;;;3.17;;
64061;SDS011;50308;47.438;-1.528;2022-08-30T04:55:44;6.57;;;3.17;;
64061;SDS011;50308;47.438;-1.528;2022-08-30T04:58:15;5.35;;;2.95;;
64061;SDS011;50308;47.438;-1.528;2022-08-30T05:00:43;5.70;;;3.20;;
64061;SDS011;50308;47.438;-1.528;2022-08-30T05:03:32;7.35;;;2.88;;
64061;SDS011;50308;47.438;-1.528;2022-08-30T05:06:24;6.07;;;3.35;;
64061;SDS011;50308;47.438;-1.528;2022-08-30T05:12:06;6.07;;;2.97;;
64061;SDS011;50308;47.438;-1.528;2022-08-30T05:14:34;6.55;;;3.22;;
64061;SDS011;50308;47.438;-1.528;2022-08-30T05:17:02;9.52;;;3.40;;
64061;SDS011;50308;47.438;-1.528;2022-08-30T05:19:33;7.43;;;3.10;;
64061;SDS011;50308;47.438;-1.528;2022-08-30T05:22:06;6.20;;;2.95;;
64061;SDS011;50308;47.438;-1.528;2022-08-30T05:27:18;8.35;;;3.38;;
64061;SDS011;50308;47.438;-1.528;2022-08-30T05:29:51;5.00;;;2.90;;
64061;SDS011;50308;47.438;-1.528;2022-08-30T05:32:18;6.25;;;2.97;;
64061;SDS011;50308;47.438;-1.528;2022-08-30T05:34:45;7.30;;;3.47;;
64061;SDS011;50308;47.438;-1.528;2022-08-30T05:37:19;5.05;;;3.03;;
64061;SDS011;50308;47.438;-1.528;2022-08-30T05:39:59;6.70;;;3.25;;
64061;SDS011;50308;47.438;-1.528;2022-08-30T05:42:32;6.22;;;3.35;;
64061;SDS011;50308;47.438;-1.528;2022-08-30T05:45:09;5.97;;;3.00;;
64061;SDS011;50308;47.438;-1.528;2022-08-30T05:47:45;6.07;;;3.30;;
64061;SDS011;50308;47.438;-1.528;2022-08-30T05:50:15;5.47;;;2.97;;
64061;SDS011;50308;47.438;-1.528;2022-08-30T05:52:42;6.45;;;3.00;;
64061;SDS011;50308;47.438;-1.528;2022-08-30T05:55:18;5.47;;;3.10;;
64061;SDS011;50308;47.438;-1.528;2022-08-30T05:57:58;7.43;;;3.03;;
64061;SDS011;50308;47.438;-1.528;2022-08-30T06:00:49;7.45;;;3.20;;
64061;SDS011;50308;47.438;-1.528;2022-08-30T06:03:40;4.65;;;2.60;;
64061;SDS011;50308;47.438;-1.528;2022-08-30T06:06:11;7.50;;;2.88;;
64061;SDS011;50308;47.438;-1.528;2022-08-30T06:08:51;7.88;;;3.60;;
64061;SDS011;50308;47.438;-1.528;2022-08-30T06:11:25;4.30;;;3.28;;
64061;SDS011;50308;47.438;-1.528;2022-08-30T06:13:59;7.68;;;3.00;;
64061;SDS011;50308;47.438;-1.528;2022-08-30T06:16:43;5.47;;;3.08;;
64061;SDS011;50308;47.438;-1.528;2022-08-30T06:19:12;4.88;;;3.00;;
64061;SDS011;50308;47.438;-1.528;2022-08-30T06:21:41;23.15;;;4.30;;
64061;SDS011;50308;47.438;-1.528;2022-08-30T06:24:19;15.35;;;3.50;;
64061;SDS011;50308;47.438;-1.528;2022-08-30T06:26:50;7.25;;;3.30;;
64061;SDS011;50308;47.438;-1.528;2022-08-30T06:29:30;8.48;;;3.60;;
64061;SDS011;50308;47.438;-1.528;2022-08-30T06:32:02;8.85;;;3.33;;
64061;SDS011;50308;47.438;-1.528;2022-08-30T06:34:38;7.50;;;3.00;;
64061;SDS011;50308;47.438;-1.528;2022-08-30T06:37:08;6.40;;;2.92;;
64061;SDS011;50308;47.438;-1.528;2022-08-30T06:39:39;9.65;;;3.53;;
64061;SDS011;50308;47.438;-1.528;2022-08-30T06:42:10;7.70;;;3.20;;
64061;SDS011;50308;47.438;-1.528;2022-08-30T06:44:42;7.35;;;3.50;;
64061;SDS011;50308;47.438;-1.528;2022-08-30T06:47:10;9.57;;;3.42;;
64061;SDS011;50308;47.438;-1.528;2022-08-30T06:49:38;8.32;;;3.22;;
64061;SDS011;50308;47.438;-1.528;2022-08-30T06:52:08;6.13;;;2.83;;
64061;SDS011;50308;47.438;-1.528;2022-08-30T06:54:38;7.60;;;3.03;;
64061;SDS011;50308;47.438;-1.528;2022-08-30T06:57:06;4.50;;;2.80;;
64061;SDS011;50308;47.438;-1.528;2022-08-30T06:59:41;7.88;;;3.00;;
64061;SDS011;50308;47.438;-1.528;2022-08-30T07:02:08;6.25;;;2.90;;
64061;SDS011;50308;47.438;-1.528;2022-08-30T07:04:37;6.85;;;3.20;;
64061;SDS011;50308;47.438;-1.528;2022-08-30T07:07:08;6.70;;;3.03;;
64061;SDS011;50308;47.438;-1.528;2022-08-30T07:09:44;6.03;;;2.83;;
64061;SDS011;50308;47.438;-1.528;2022-08-30T07:12:15;7.82;;;3.45;;
64061;SDS011;50308;47.438;-1.528;2022-08-30T07:14:43;6.88;;;3.17;;
64061;SDS011;50308;47.438;-1.528;2022-08-30T07:17:13;13.57;;;2.95;;
64061;SDS011;50308;47.438;-1.528;2022-08-30T07:20:02;5.75;;;3.50;;
64061;SDS011;50308;47.438;-1.528;2022-08-30T07:25:02;4.88;;;2.90;;
64061;SDS011;50308;47.438;-1.528;2022-08-30T07:27:41;5.95;;;2.88;;
64061;SDS011;50308;47.438;-1.528;2022-08-30T07:30:17;5.05;;;2.80;;
64061;SDS011;50308;47.438;-1.528;2022-08-30T07:32:51;3.63;;;2.35;;
64061;SDS011;50308;47.438;-1.528;2022-08-30T07:37:45;5.32;;;2.63;;
64061;SDS011;50308;47.438;-1.528;2022-08-30T07:40:16;4.40;;;2.63;;
64061;SDS011;50308;47.438;-1.528;2022-08-30T07:42:48;6.68;;;3.40;;
64061;SDS011;50308;47.438;-1.528;2022-08-30T07:45:22;5.63;;;2.78;;
64061;SDS011;50308;47.438;-1.528;2022-08-30T07:48:14;6.43;;;2.60;;
64061;SDS011;50308;47.438;-1.528;2022-08-30T07:50:45;5.05;;;2.70;;
64061;SDS011;50308;47.438;-1.528;2022-08-30T07:53:16;6.30;;;2.90;;
64061;SDS011;50308;47.438;-1.528;2022-08-30T07:55:50;5.03;;;2.55;;
64061;SDS011;50308;47.438;-1.528;2022-08-30T07:58:22;4.53;;;3.00;;
64061;SDS011;50308;47.438;-1.528;2022-08-30T08:00:48;5.13;;;3.03;;
64061;SDS011;50308;47.438;-1.528;2022-08-30T08:03:15;6.70;;;2.83;;
64061;SDS011;50308;47.438;-1.528;2022-08-30T08:05:42;7.38;;;3.22;;
64061;SDS011;50308;47.438;-1.528;2022-08-30T08:08:10;7.25;;;3.50;;
64061;SDS011;50308;47.438;-1.528;2022-08-30T08:10:37;5.13;;;2.75;;
64061;SDS011;50308;47.438;-1.528;2022-08-30T08:13:05;6.53;;;2.80;;
64061;SDS011;50308;47.438;-1.528;2022-08-30T08:15:31;4.15;;;2.88;;
64061;SDS011;50308;47.438;-1.528;2022-08-30T08:17:58;6.30;;;3.10;;
64061;SDS011;50308;47.438;-1.528;2022-08-30T08:20:25;6.38;;;3.40;;
64061;SDS011;50308;47.438;-1.528;2022-08-30T08:22:51;6.13;;;3.53;;
64061;SDS011;50308;47.438;-1.528;2022-08-30T08:25:18;5.43;;;3.10;;
64061;SDS011;50308;47.438;-1.528;2022-08-30T08:28:00;6.22;;;3.10;;
64061;SDS011;50308;47.438;-1.528;2022-08-30T08:30:26;6.85;;;3.28;;
64061;SDS011;50308;47.438;-1.528;2022-08-30T08:32:56;4.63;;;2.90;;
64061;SDS011;50308;47.438;-1.528;2022-08-30T08:35:22;6.47;;;3.65;;
64061;SDS011;50308;47.438;-1.528;2022-08-30T08:37:48;6.30;;;3.20;;
64061;SDS011;50308;47.438;-1.528;2022-08-30T08:40:17;7.30;;;3.40;;
64061;SDS011;50308;47.438;-1.528;2022-08-30T08:50:48;6.45;;;3.13;;
64061;SDS011;50308;47.438;-1.528;2022-08-30T08:53:33;6.45;;;2.92;;
64061;SDS011;50308;47.438;-1.528;2022-08-30T08:56:04;6.82;;;3.70;;
64061;SDS011;50308;47.438;-1.528;2022-08-30T09:01:11;7.93;;;3.28;;
64061;SDS011;50308;47.438;-1.528;2022-08-30T09:03:39;5.50;;;3.42;;
64061;SDS011;50308;47.438;-1.528;2022-08-30T09:06:09;6.72;;;3.78;;
64061;SDS011;50308;47.438;-1.528;2022-08-30T09:08:49;7.57;;;3.88;;
64061;SDS011;50308;47.438;-1.528;2022-08-30T09:11:22;6.40;;;3.40;;
64061;SDS011;50308;47.438;-1.528;2022-08-30T09:13:55;7.30;;;3.60;;
64061;SDS011;50308;47.438;-1.528;2022-08-30T09:18:57;8.73;;;3.35;;
64061;SDS011;50308;47.438;-1.528;2022-08-30T09:21:24;4.72;;;3.40;;
64061;SDS011;50308;47.438;-1.528;2022-08-30T09:23:55;9.60;;;3.58;;
64061;SDS011;50308;47.438;-1.528;2022-08-30T09:26:32;10.00;;;3.92;;
64061;SDS011;50308;47.438;-1.528;2022-08-30T09:29:00;6.15;;;3.40;;
64061;SDS011;50308;47.438;-1.528;2022-08-30T09:31:46;8.88;;;3.45;;
64061;SDS011;50308;47.438;-1.528;2022-08-30T09:34:19;6.32;;;4.05;;
64061;SDS011;50308;47.438;-1.528;2022-08-30T09:36:47;6.55;;;3.83;;
64061;SDS011;50308;47.438;-1.528;2022-08-30T09:39:25;7.47;;;3.60;;
64061;SDS011;50308;47.438;-1.528;2022-08-30T09:42:10;10.50;;;4.18;;
64061;SDS011;50308;47.438;-1.528;2022-08-30T09:44:57;6.47;;;3.40;;
64061;SDS011;50308;47.438;-1.528;2022-08-30T09:47:39;5.97;;;4.07;;
64061;SDS011;50308;47.438;-1.528;2022-08-30T09:50:11;9.52;;;4.47;;
64061;SDS011;50308;47.438;-1.528;2022-08-30T09:58:19;7.70;;;4.07;;
64061;SDS011;50308;47.438;-1.528;2022-08-30T10:01:06;7.25;;;4.07;;
64061;SDS011;50308;47.438;-1.528;2022-08-30T10:03:40;5.13;;;3.63;;
64061;SDS011;50308;47.438;-1.528;2022-08-30T10:06:30;6.13;;;3.88;;
64061;SDS011;50308;47.438;-1.528;2022-08-30T10:12:08;5.97;;;4.25;;
64061;SDS011;50308;47.438;-1.528;2022-08-30T10:20:22;9.38;;;5.30;;
64061;SDS011;50308;47.438;-1.528;2022-08-30T10:22:58;11.73;;;4.45;;
64061;SDS011;50308;47.438;-1.528;2022-08-30T10:26:26;7.93;;;4.78;;
64061;SDS011;50308;47.438;-1.528;2022-08-30T10:28:54;8.70;;;4.97;;
64061;SDS011;50308;47.438;-1.528;2022-08-30T10:34:46;11.20;;;5.05;;
64061;SDS011;50308;47.438;-1.528;2022-08-30T10:37:24;9.55;;;4.68;;
64061;SDS011;50308;47.438;-1.528;2022-08-30T10:39:53;9.73;;;4.70;;
64061;SDS011;50308;47.438;-1.528;2022-08-30T10:44:55;10.20;;;5.35;;
64061;SDS011;50308;47.438;-1.528;2022-08-30T10:55:35;9.93;;;4.88;;
64061;SDS011;50308;47.438;-1.528;2022-08-30T10:58:22;6.75;;;4.60;;
64061;SDS011;50308;47.438;-1.528;2022-08-30T11:03:57;8.70;;;4.65;;
64061;SDS011;50308;47.438;-1.528;2022-08-30T11:09:34;8.10;;;5.00;;
64061;SDS011;50308;47.438;-1.528;2022-08-30T11:12:32;9.52;;;5.07;;
64061;SDS011;50308;47.438;-1.528;2022-08-30T11:15:13;9.15;;;4.82;;
64061;SDS011;50308;47.438;-1.528;2022-08-30T11:17:45;6.95;;;4.70;;
64061;SDS011;50308;47.438;-1.528;2022-08-30T11:20:44;9.20;;;5.20;;
64061;SDS011;50308;47.438;-1.528;2022-08-30T11:26:09;11.45;;;5.75;;
64061;SDS011;50308;47.438;-1.528;2022-08-30T11:31:28;7.28;;;4.88;;
64061;SDS011;50308;47.438;-1.528;2022-08-30T11:33:59;7.72;;;5.57;;
64061;SDS011;50308;47.438;-1.528;2022-08-30T11:41:33;6.60;;;4.72;;
64061;SDS011;50308;47.438;-1.528;2022-08-30T11:46:50;9.77;;;5.57;;
64061;SDS011;50308;47.438;-1.528;2022-08-30T11:57:34;9.90;;;5.75;;
64061;SDS011;50308;47.438;-1.528;2022-08-30T12:03:03;9.07;;;5.97;;
64061;SDS011;50308;47.438;-1.528;2022-08-30T12:21:28;6.63;;;4.97;;
64061;SDS011;50308;47.438;-1.528;2022-08-30T12:24:03;8.60;;;5.30;;
64061;SDS011;50308;47.438;-1.528;2022-08-30T12:26:39;8.63;;;5.72;;
64061;SDS011;50308;47.438;-1.528;2022-08-30T12:29:24;7.28;;;4.85;;
64061;SDS011;50308;47.438;-1.528;2022-08-30T12:31:56;12.70;;;5.47;;
64061;SDS011;50308;47.438;-1.528;2022-08-30T12:34:27;8.93;;;5.50;;
64061;SDS011;50308;47.438;-1.528;2022-08-30T12:42:38;7.82;;;5.70;;
64061;SDS011;50308;47.438;-1.528;2022-08-30T12:45:15;8.23;;;5.10;;
64061;SDS011;50308;47.438;-1.528;2022-08-30T12:50:17;7.25;;;4.32;;
64061;SDS011;50308;47.438;-1.528;2022-08-30T12:55:16;7.32;;;4.72;;
64061;SDS011;50308;47.438;-1.528;2022-08-30T13:00:37;7.53;;;5.05;;
64061;SDS011;50308;47.438;-1.528;2022-08-30T13:05:53;6.70;;;5.28;;
64061;SDS011;50308;47.438;-1.528;2022-08-30T13:11:09;6.78;;;5.30;;
64061;SDS011;50308;47.438;-1.528;2022-08-30T13:16:43;9.27;;;4.70;;
64061;SDS011;50308;47.438;-1.528;2022-08-30T13:22:00;6.55;;;4.90;;
64061;SDS011;50308;47.438;-1.528;2022-08-30T13:24:28;8.07;;;5.35;;
64061;SDS011;50308;47.438;-1.528;2022-08-30T13:27:04;7.00;;;4.75;;
64061;SDS011;50308;47.438;-1.528;2022-08-30T13:29:33;7.13;;;4.57;;
64061;SDS011;50308;47.438;-1.528;2022-08-30T13:31:59;7.70;;;5.72;;
64061;SDS011;50308;47.438;-1.528;2022-08-30T13:34:24;6.93;;;4.85;;
64061;SDS011;50308;47.438;-1.528;2022-08-30T13:36:54;7.00;;;4.35;;
64061;SDS011;50308;47.438;-1.528;2022-08-30T13:39:21;9.07;;;5.40;;
64061;SDS011;50308;47.438;-1.528;2022-08-30T13:41:48;8.82;;;5.45;;
64061;SDS011;50308;47.438;-1.528;2022-08-30T13:44:15;7.05;;;4.97;;
64061;SDS011;50308;47.438;-1.528;2022-08-30T13:46:41;8.13;;;5.47;;
64061;SDS011;50308;47.438;-1.528;2022-08-30T13:49:16;7.25;;;5.18;;
64061;SDS011;50308;47.438;-1.528;2022-08-30T13:51:45;13.05;;;5.68;;
64061;SDS011;50308;47.438;-1.528;2022-08-30T13:54:12;7.82;;;5.25;;
64061;SDS011;50308;47.438;-1.528;2022-08-30T13:56:38;9.40;;;5.55;;
64061;SDS011;50308;47.438;-1.528;2022-08-30T13:59:04;7.10;;;5.25;;
64061;SDS011;50308;47.438;-1.528;2022-08-30T14:01:32;8.13;;;4.97;;
64061;SDS011;50308;47.438;-1.528;2022-08-30T14:03:58;13.20;;;5.85;;
64061;SDS011;50308;47.438;-1.528;2022-08-30T14:06:23;10.35;;;5.43;;
64061;SDS011;50308;47.438;-1.528;2022-08-30T14:08:49;8.38;;;5.03;;
64061;SDS011;50308;47.438;-1.528;2022-08-30T14:11:16;7.88;;;5.20;;
64061;SDS011;50308;47.438;-1.528;2022-08-30T14:13:43;8.30;;;4.97;;
64061;SDS011;50308;47.438;-1.528;2022-08-30T14:16:10;9.30;;;5.53;;
64061;SDS011;50308;47.438;-1.528;2022-08-30T14:18:35;9.07;;;5.47;;
64061;SDS011;50308;47.438;-1.528;2022-08-30T14:21:01;7.72;;;5.25;;
64061;SDS011;50308;47.438;-1.528;2022-08-30T14:23:27;7.30;;;5.13;;
64061;SDS011;50308;47.438;-1.528;2022-08-30T14:25:54;9.15;;;5.50;;
64061;SDS011;50308;47.438;-1.528;2022-08-30T14:28:22;7.88;;;5.72;;
64061;SDS011;50308;47.438;-1.528;2022-08-30T14:30:49;10.35;;;5.50;;
64061;SDS011;50308;47.438;-1.528;2022-08-30T14:33:15;8.95;;;4.97;;
64061;SDS011;50308;47.438;-1.528;2022-08-30T14:35:41;6.70;;;4.97;;
64061;SDS011;50308;47.438;-1.528;2022-08-30T14:38:07;6.90;;;5.22;;
64061;SDS011;50308;47.438;-1.528;2022-08-30T14:40:33;8.10;;;5.40;;
64061;SDS011;50308;47.438;-1.528;2022-08-30T14:42:58;8.10;;;5.60;;
64061;SDS011;50308;47.438;-1.528;2022-08-30T14:45:24;9.52;;;5.25;;
64061;SDS011;50308;47.438;-1.528;2022-08-30T14:47:50;9.05;;;5.03;;
64061;SDS011;50308;47.438;-1.528;2022-08-30T14:50:15;7.25;;;5.70;;
64061;SDS011;50308;47.438;-1.528;2022-08-30T14:52:41;7.63;;;5.18;;
64061;SDS011;50308;47.438;-1.528;2022-08-30T14:55:08;6.57;;;4.78;;
64061;SDS011;50308;47.438;-1.528;2022-08-30T14:57:36;7.85;;;4.70;;
64061;SDS011;50308;47.438;-1.528;2022-08-30T15:00:03;8.75;;;5.45;;
64061;SDS011;50308;47.438;-1.528;2022-08-30T15:02:31;8.60;;;5.38;;
64061;SDS011;50308;47.438;-1.528;2022-08-30T15:04:56;7.15;;;5.15;;
64061;SDS011;50308;47.438;-1.528;2022-08-30T15:07:22;7.85;;;4.72;;
64061;SDS011;50308;47.438;-1.528;2022-08-30T15:09:48;6.28;;;4.95;;
64061;SDS011;50308;47.438;-1.528;2022-08-30T15:12:14;8.38;;;5.72;;
64061;SDS011;50308;47.438;-1.528;2022-08-30T15:14:39;7.82;;;5.00;;
64061;SDS011;50308;47.438;-1.528;2022-08-30T15:17:05;7.95;;;5.38;;
64061;SDS011;50308;47.438;-1.528;2022-08-30T15:19:31;7.18;;;4.90;;
64061;SDS011;50308;47.438;-1.528;2022-08-30T15:21:58;8.50;;;5.15;;
64061;SDS011;50308;47.438;-1.528;2022-08-30T15:24:25;15.70;;;5.28;;
64061;SDS011;50308;47.438;-1.528;2022-08-30T15:26:51;12.77;;;5.45;;
64061;SDS011;50308;47.438;-1.528;2022-08-30T15:29:17;13.70;;;6.28;;
64061;SDS011;50308;47.438;-1.528;2022-08-30T15:31:45;10.48;;;5.80;;
64061;SDS011;50308;47.438;-1.528;2022-08-30T15:34:13;13.95;;;5.88;;
64061;SDS011;50308;47.438;-1.528;2022-08-30T15:36:40;13.68;;;6.07;;
64061;SDS011;50308;47.438;-1.528;2022-08-30T15:39:08;13.30;;;5.50;;
64061;SDS011;50308;47.438;-1.528;2022-08-30T15:41:34;14.88;;;6.00;;
64061;SDS011;50308;47.438;-1.528;2022-08-30T15:44:01;16.52;;;6.30;;
64061;SDS011;50308;47.438;-1.528;2022-08-30T15:46:28;14.95;;;6.35;;
64061;SDS011;50308;47.438;-1.528;2022-08-30T15:49:38;16.00;;;6.03;;
64061;SDS011;50308;47.438;-1.528;2022-08-30T15:51:46;14.30;;;6.13;;
64061;SDS011;50308;47.438;-1.528;2022-08-30T15:54:14;13.18;;;6.35;;
64061;SDS011;50308;47.438;-1.528;2022-08-30T15:56:41;10.00;;;6.03;;
64061;SDS011;50308;47.438;-1.528;2022-08-30T15:59:07;12.98;;;6.65;;
64061;SDS011;50308;47.438;-1.528;2022-08-30T16:01:34;16.58;;;7.15;;
64061;SDS011;50308;47.438;-1.528;2022-08-30T16:04:00;13.15;;;6.68;;
64061;SDS011;50308;47.438;-1.528;2022-08-30T16:06:30;21.00;;;6.30;;
64061;SDS011;50308;47.438;-1.528;2022-08-30T16:08:59;10.95;;;6.10;;
64061;SDS011;50308;47.438;-1.528;2022-08-30T16:11:25;14.27;;;5.93;;
64061;SDS011;50308;47.438;-1.528;2022-08-30T16:13:52;10.95;;;6.10;;
64061;SDS011;50308;47.438;-1.528;2022-08-30T16:16:19;12.02;;;5.90;;
64061;SDS011;50308;47.438;-1.528;2022-08-30T16:18:46;11.60;;;5.68;;
64061;SDS011;50308;47.438;-1.528;2022-08-30T16:21:14;10.23;;;6.43;;
64061;SDS011;50308;47.438;-1.528;2022-08-30T16:23:42;11.95;;;6.70;;
64061;SDS011;50308;47.438;-1.528;2022-08-30T16:26:08;9.73;;;6.03;;
64061;SDS011;50308;47.438;-1.528;2022-08-30T16:28:35;9.55;;;6.15;;
64061;SDS011;50308;47.438;-1.528;2022-08-30T16:31:02;12.45;;;6.03;;
64061;SDS011;50308;47.438;-1.528;2022-08-30T16:33:29;8.63;;;6.05;;
64061;SDS011;50308;47.438;-1.528;2022-08-30T16:35:55;8.95;;;6.40;;
64061;SDS011;50308;47.438;-1.528;2022-08-30T16:38:22;9.50;;;5.75;;
64061;SDS011;50308;47.438;-1.528;2022-08-30T16:40:48;8.82;;;6.63;;
64061;SDS011;50308;47.438;-1.528;2022-08-30T16:43:14;7.68;;;5.72;;
64061;SDS011;50308;47.438;-1.528;2022-08-30T16:45:41;10.20;;;5.75;;
64061;SDS011;50308;47.438;-1.528;2022-08-30T16:48:07;7.72;;;5.85;;
64061;SDS011;50308;47.438;-1.528;2022-08-30T16:50:34;10.00;;;5.78;;
64061;SDS011;50308;47.438;-1.528;2022-08-30T16:53:01;8.98;;;5.93;;
64061;SDS011;50308;47.438;-1.528;2022-08-30T16:55:27;9.60;;;5.75;;
64061;SDS011;50308;47.438;-1.528;2022-08-30T16:57:54;8.07;;;6.03;;
64061;SDS011;50308;47.438;-1.528;2022-08-30T17:00:19;11.13;;;6.03;;
64061;SDS011;50308;47.438;-1.528;2022-08-30T17:02:45;9.55;;;6.28;;
64061;SDS011;50308;47.438;-1.528;2022-08-30T17:05:11;8.32;;;5.90;;
64061;SDS011;50308;47.438;-1.528;2022-08-30T17:07:36;9.07;;;5.90;;
64061;SDS011;50308;47.438;-1.528;2022-08-30T17:10:03;7.65;;;5.82;;
64061;SDS011;50308;47.438;-1.528;2022-08-30T17:12:29;9.20;;;6.60;;
64061;SDS011;50308;47.438;-1.528;2022-08-30T17:14:55;10.82;;;6.10;;
64061;SDS011;50308;47.438;-1.528;2022-08-30T17:17:21;8.80;;;5.88;;
64061;SDS011;50308;47.438;-1.528;2022-08-30T17:19:47;8.55;;;6.25;;